createdAt,value
2018-09-25T01:27:29.693Z,0.53
2018-09-25T01:29:31.927Z,0.50
2018-09-25T01:31:34.166Z,0.60
2018-09-25T01:33:36.427Z,0.80
2018-09-25T01:35:38.704Z,0.50
2018-09-25T01:37:40.972Z,0.50
2018-09-25T01:39:43.202Z,0.60
2018-09-25T01:41:45.484Z,0.53
2018-09-25T01:43:47.705Z,0.60
2018-09-25T01:45:49.936Z,0.87
2018-09-25T01:47:52.184Z,0.53
2018-09-25T01:49:54.456Z,0.80
2018-09-25T01:51:56.726Z,0.50
2018-09-25T01:53:58.954Z,0.60
2018-09-25T01:56:01.217Z,0.47
2018-09-25T01:58:03.456Z,0.60
2018-09-25T02:00:05.743Z,0.60
2018-09-25T02:02:07.960Z,0.40
2018-09-25T02:04:10.226Z,0.40
2018-09-25T02:06:12.515Z,0.73
2018-09-25T02:08:14.744Z,0.43
2018-09-25T02:10:17.008Z,0.60
2018-09-25T02:12:19.259Z,0.50
2018-09-25T02:14:21.485Z,0.80
2018-09-25T02:16:23.758Z,0.50
2018-09-25T02:18:26.018Z,0.50
2018-09-25T02:20:28.280Z,0.60
2018-09-25T02:22:30.534Z,0.50
2018-09-25T02:24:32.826Z,0.57
2018-09-25T02:26:35.072Z,0.67
2018-09-25T02:28:37.290Z,0.80
2018-09-25T02:30:39.554Z,0.47
2018-09-25T02:32:41.850Z,0.70
2018-09-25T02:34:44.092Z,0.60
2018-09-25T02:36:46.317Z,0.60
2018-09-25T02:38:48.602Z,0.47
2018-09-25T02:40:50.828Z,0.40
2018-09-25T02:42:53.073Z,0.60
2018-09-25T02:44:55.346Z,0.50
2018-09-25T02:46:57.591Z,0.60
2018-09-25T02:48:59.859Z,0.50
2018-09-25T02:51:02.125Z,0.50
2018-09-25T02:53:04.398Z,0.50
2018-09-25T02:55:06.632Z,0.33
2018-09-25T02:57:08.892Z,0.60
2018-09-25T02:59:11.134Z,0.50
2018-09-25T03:01:13.387Z,0.60
2018-09-25T03:03:15.656Z,0.60
2018-09-25T03:05:17.888Z,0.50
2018-09-25T03:07:20.156Z,0.50
2018-09-25T03:09:22.425Z,0.50
2018-09-25T03:11:24.786Z,0.60
2018-09-25T03:13:27.004Z,0.50
2018-09-25T03:15:29.286Z,0.50
2018-09-25T03:17:31.572Z,0.60
2018-09-25T03:19:33.812Z,0.57
2018-09-25T03:21:36.041Z,0.50
2018-09-25T03:23:38.326Z,0.43
2018-09-25T03:25:40.595Z,0.90
2018-09-25T03:27:42.835Z,0.40
2018-09-25T03:29:45.063Z,0.37
2018-09-25T03:31:47.357Z,0.60
2018-09-25T03:33:49.607Z,0.50
2018-09-25T03:35:51.868Z,0.30
2018-09-25T03:37:54.154Z,0.50
2018-09-25T03:39:56.414Z,0.60
2018-09-25T03:41:58.638Z,0.40
2018-09-25T03:44:00.938Z,0.40
2018-09-25T03:46:03.174Z,0.53
2018-09-25T03:48:05.434Z,0.47
2018-09-25T03:50:07.754Z,0.50
2018-09-25T03:52:10.008Z,0.60
2018-09-25T03:54:12.307Z,0.20
2018-09-25T03:56:14.547Z,0.40
2018-09-25T03:58:16.764Z,0.30
2018-09-25T04:00:19.033Z,0.60
2018-09-25T04:02:21.317Z,0.50
2018-09-25T04:04:23.557Z,0.50
2018-09-25T04:06:25.850Z,0.40
2018-09-25T04:08:28.138Z,0.40
2018-09-25T04:10:30.408Z,0.57
2018-09-25T04:12:32.640Z,0.40
2018-09-25T04:14:34.902Z,0.37
2018-09-25T04:16:37.137Z,0.40
2018-09-25T04:18:39.414Z,0.57
2018-09-25T04:20:41.726Z,0.40
2018-09-25T04:22:43.921Z,0.50
2018-09-25T04:24:46.190Z,0.40
2018-09-25T04:26:48.425Z,0.50
2018-09-25T04:28:50.674Z,0.57
2018-09-25T04:30:52.950Z,0.50
2018-09-25T04:32:55.218Z,0.50
2018-09-25T04:34:57.474Z,0.40
2018-09-25T04:36:59.735Z,0.40
2018-09-25T04:39:01.982Z,0.30
2018-09-25T04:41:04.206Z,0.43
2018-09-25T04:43:06.435Z,0.30
2018-09-25T04:45:08.693Z,0.40
2018-09-25T04:47:10.936Z,0.40
2018-09-25T04:49:13.210Z,0.60
2018-09-25T04:51:15.452Z,0.60
2018-09-25T04:53:17.701Z,0.50
2018-09-25T04:55:19.991Z,0.50
2018-09-25T04:57:22.240Z,0.53
2018-09-25T04:59:25.005Z,0.40
2018-09-25T05:01:27.285Z,0.57
2018-09-25T05:03:29.519Z,0.60
2018-09-25T05:05:31.781Z,0.50
2018-09-25T05:07:34.461Z,0.70
2018-09-25T05:09:36.691Z,0.40
2018-09-25T05:11:38.957Z,0.50
2018-09-25T05:13:41.189Z,0.40
2018-09-25T05:15:43.448Z,0.83
2018-09-25T05:17:45.718Z,0.50
2018-09-25T05:19:47.955Z,0.50
2018-09-25T05:21:50.227Z,0.60
2018-09-25T05:23:52.495Z,0.40
2018-09-25T05:25:54.715Z,0.50
2018-09-25T05:27:56.993Z,0.30
2018-09-25T05:29:59.233Z,0.40
2018-09-25T05:32:01.475Z,0.47
2018-09-25T05:34:03.751Z,0.43
2018-09-25T05:36:05.981Z,0.50
2018-09-25T05:38:08.256Z,0.40
2018-09-25T05:40:10.478Z,0.37
2018-09-25T05:42:12.734Z,0.40
2018-09-25T05:44:14.980Z,0.50
2018-09-25T05:46:17.233Z,0.47
2018-09-25T05:48:19.591Z,0.50
2018-09-25T05:50:21.709Z,0.50
2018-09-25T05:52:23.971Z,0.40
2018-09-25T05:54:26.229Z,0.60
2018-09-25T05:56:28.523Z,0.47
2018-09-25T05:58:30.739Z,0.40
2018-09-25T06:00:33.030Z,0.47
2018-09-25T06:02:35.248Z,0.40
2018-09-25T06:04:37.491Z,0.43
2018-09-25T06:06:39.757Z,0.50
2018-09-25T06:08:42.045Z,0.30
2018-09-25T06:10:44.255Z,0.40
2018-09-25T06:12:46.549Z,0.43
2018-09-25T06:14:48.789Z,0.50
2018-09-25T06:16:51.035Z,0.30
2018-09-25T06:18:53.292Z,0.40
2018-09-25T06:20:55.541Z,0.30
2018-09-25T06:22:57.838Z,0.43
2018-09-25T06:25:00.625Z,0.50
2018-09-25T06:27:02.898Z,0.50
2018-09-25T06:29:05.165Z,0.40
2018-09-25T06:31:07.431Z,0.50
2018-09-25T06:33:09.697Z,0.30
2018-09-25T06:35:11.932Z,0.47
2018-09-25T06:37:14.224Z,0.40
2018-09-25T06:39:16.423Z,0.27
2018-09-25T06:41:18.698Z,0.30
2018-09-25T06:43:20.960Z,0.30
2018-09-25T06:45:23.238Z,0.40
2018-09-25T06:47:25.552Z,0.57
2018-09-25T06:49:27.775Z,0.20
2018-09-25T06:51:30.079Z,0.40
2018-09-25T06:53:32.327Z,0.30
2018-09-25T06:55:34.559Z,0.30
2018-09-25T06:57:36.837Z,0.50
2018-09-25T06:59:39.056Z,0.50
2018-09-25T07:01:41.289Z,0.30
2018-09-25T07:03:43.553Z,0.40
2018-09-25T07:05:45.801Z,0.20
2018-09-25T07:07:48.070Z,0.40
2018-09-25T07:09:50.403Z,0.40
2018-09-25T07:11:52.524Z,0.30
2018-09-25T07:13:54.836Z,0.30
2018-09-25T07:15:57.008Z,0.33
2018-09-25T07:17:59.313Z,0.40
2018-09-25T07:20:01.573Z,0.40
2018-09-25T07:22:03.814Z,0.37
2018-09-25T07:24:06.066Z,0.40
2018-09-25T07:26:08.284Z,0.40
2018-09-25T07:28:10.561Z,0.30
2018-09-25T07:30:12.777Z,0.40
2018-09-25T07:32:15.022Z,0.40
2018-09-25T07:34:17.310Z,0.27
2018-09-25T07:36:19.542Z,0.40
2018-09-25T07:42:42.698Z,0.40
2018-09-25T07:44:44.962Z,0.30
2018-09-25T07:46:47.226Z,0.20
2018-09-25T07:48:49.480Z,0.40
2018-09-25T07:50:51.760Z,0.40
2018-09-25T07:52:54.074Z,0.40
2018-09-25T07:54:56.360Z,0.40
2018-09-25T07:56:58.628Z,0.30
2018-09-25T07:59:00.892Z,0.30
2018-09-25T08:01:03.120Z,0.40
2018-09-25T08:03:05.403Z,0.37
2018-09-25T08:05:07.587Z,0.30
2018-09-25T08:07:09.872Z,0.30
2018-09-25T08:09:12.128Z,0.40
2018-09-25T08:11:14.338Z,0.30
2018-09-25T08:13:16.624Z,0.40
2018-09-25T08:15:18.891Z,0.30
2018-09-25T08:17:21.163Z,0.27
2018-09-25T08:19:23.426Z,0.30
2018-09-25T08:21:25.704Z,0.30
2018-09-25T08:23:27.964Z,0.30
2018-09-25T08:25:30.191Z,0.40
2018-09-25T08:27:32.446Z,0.30
2018-09-25T08:29:34.765Z,0.30
2018-09-25T08:31:36.943Z,0.30
2018-09-25T08:33:39.180Z,0.30
2018-09-25T08:35:41.488Z,0.30
2018-09-25T08:37:43.727Z,0.20
2018-09-25T08:39:45.979Z,0.30
2018-09-25T08:41:48.244Z,0.60
2018-09-25T08:43:50.482Z,0.20
2018-09-25T08:45:52.807Z,0.20
2018-09-25T08:47:55.000Z,0.20
2018-09-25T08:49:57.215Z,0.30
2018-09-25T08:51:59.487Z,0.20
2018-09-25T08:54:01.716Z,0.30
2018-09-25T08:56:04.016Z,0.10
2018-09-25T08:58:06.262Z,0.30
2018-09-25T09:00:08.534Z,0.30
2018-09-25T09:02:10.779Z,0.40
2018-09-25T09:04:13.022Z,0.40
2018-09-25T09:06:15.277Z,0.40
2018-09-25T09:08:17.564Z,0.10
2018-09-25T09:10:20.181Z,0.30
2018-09-25T09:12:22.465Z,0.40
2018-09-25T09:14:24.707Z,0.40
2018-09-25T09:16:26.964Z,0.30
2018-09-25T09:18:29.234Z,0.30
2018-09-25T09:20:31.456Z,0.30
2018-09-25T09:22:33.699Z,0.30
2018-09-25T09:24:35.991Z,0.30
2018-09-25T09:26:38.233Z,0.20
2018-09-25T09:28:40.519Z,0.20
2018-09-25T09:30:42.759Z,0.20
2018-09-25T09:32:44.989Z,0.20
2018-09-25T09:34:47.272Z,0.20
2018-09-25T09:36:49.531Z,0.40
2018-09-25T09:38:51.744Z,0.33
2018-09-25T09:40:54.052Z,0.40
2018-09-25T09:42:56.300Z,0.20
2018-09-25T09:44:58.561Z,0.30
2018-09-25T09:47:00.804Z,0.30
2018-09-25T09:49:03.033Z,0.23
2018-09-25T09:51:05.774Z,0.40
2018-09-25T09:53:08.031Z,0.40
2018-09-25T09:55:10.323Z,0.30
2018-09-25T09:57:12.563Z,0.23
2018-09-25T09:59:14.802Z,0.27
2018-09-25T10:01:17.066Z,0.10
2018-09-25T10:03:19.400Z,0.20
2018-09-25T10:05:21.664Z,0.20
2018-09-25T10:07:23.893Z,0.20
2018-09-25T10:09:26.163Z,0.33
2018-09-25T10:11:28.399Z,0.23
2018-09-25T10:13:30.635Z,0.20
2018-09-25T10:15:33.005Z,0.30
2018-09-25T10:17:35.251Z,0.33
2018-09-25T10:19:37.507Z,0.30
2018-09-25T10:21:39.798Z,0.30
2018-09-25T10:23:42.025Z,0.20
2018-09-25T10:25:44.302Z,0.23
2018-09-25T10:27:46.549Z,0.20
2018-09-25T10:29:48.796Z,0.30
2018-09-25T10:31:51.098Z,0.20
2018-09-25T10:33:53.366Z,0.27
2018-09-25T10:35:55.566Z,0.30
2018-09-25T10:37:57.839Z,0.20
2018-09-25T10:40:00.034Z,0.30
2018-09-25T10:42:02.324Z,0.30
2018-09-25T10:44:04.554Z,0.53
2018-09-25T10:46:06.836Z,0.20
2018-09-25T10:48:09.098Z,0.10
2018-09-25T10:50:11.350Z,0.30
2018-09-25T10:52:13.625Z,0.20
2018-09-25T10:54:15.836Z,0.30
2018-09-25T10:56:18.182Z,0.27
2018-09-25T10:58:20.365Z,0.40
2018-09-25T11:00:22.605Z,0.23
2018-09-25T11:02:24.896Z,0.50
2018-09-25T11:04:27.121Z,0.20
2018-09-25T11:06:29.349Z,0.43
2018-09-25T11:08:31.639Z,0.20
2018-09-25T11:10:33.909Z,0.30
2018-09-25T11:12:36.154Z,0.10
2018-09-25T11:14:38.389Z,0.20
2018-09-25T11:16:40.665Z,0.30
2018-09-25T11:18:42.931Z,0.10
2018-09-25T11:20:45.203Z,0.25
2018-09-25T11:22:47.458Z,0.20
2018-09-25T11:24:49.777Z,0.28
2018-09-25T11:26:52.014Z,0.20
2018-09-25T11:28:54.333Z,0.30
2018-09-25T11:30:56.605Z,0.40
2018-09-25T11:32:58.854Z,0.30
2018-09-25T11:35:01.127Z,0.43
2018-09-25T11:37:03.369Z,0.30
2018-09-25T11:39:05.672Z,0.30
2018-09-25T11:41:07.911Z,0.30
2018-09-25T11:43:10.169Z,0.20
2018-09-25T11:45:12.417Z,0.20
2018-09-25T11:47:14.757Z,0.30
2018-09-25T11:49:16.958Z,0.13
2018-09-25T11:51:19.209Z,0.30
2018-09-25T11:53:21.461Z,0.37
2018-09-25T11:55:23.717Z,0.30
2018-09-25T11:57:25.964Z,0.20
2018-09-25T11:59:28.227Z,0.30
2018-09-25T12:01:30.454Z,0.30
2018-09-25T12:03:32.720Z,0.30
2018-09-25T12:05:35.003Z,0.30
2018-09-25T12:07:37.287Z,0.30
2018-09-25T12:09:39.578Z,0.28
2018-09-25T12:11:41.826Z,0.35
2018-09-25T12:13:44.117Z,0.20
2018-09-25T12:15:46.378Z,0.20
2018-09-25T12:17:48.624Z,0.30
2018-09-25T12:19:50.874Z,0.30
2018-09-25T12:21:53.762Z,0.10
2018-09-25T12:23:55.990Z,0.35
2018-09-25T12:25:58.209Z,0.20
2018-09-25T12:28:00.486Z,0.40
2018-09-25T12:30:02.826Z,0.20
2018-09-25T12:32:05.040Z,0.40
2018-09-25T12:34:07.324Z,0.43
2018-09-25T12:36:09.564Z,0.30
2018-09-25T12:38:11.859Z,0.30
2018-09-25T12:40:14.090Z,0.20
2018-09-25T12:42:16.313Z,0.20
2018-09-25T12:44:18.586Z,0.20
2018-09-25T12:46:20.874Z,0.40
2018-09-25T12:48:23.627Z,0.30
2018-09-25T12:50:32.975Z,0.10
2018-09-25T12:52:35.236Z,0.20
2018-09-25T12:54:37.501Z,0.23
2018-09-25T12:56:39.760Z,0.20
2018-09-25T12:58:42.048Z,0.30
2018-09-25T13:00:44.259Z,0.20
2018-09-25T13:02:46.497Z,0.10
2018-09-25T13:04:48.759Z,0.20
2018-09-25T13:06:51.023Z,0.15
2018-09-25T13:08:53.291Z,0.30
2018-09-25T13:10:55.599Z,0.30
2018-09-25T13:12:57.837Z,0.30
2018-09-25T13:15:00.129Z,0.30
2018-09-25T13:17:02.367Z,0.20
2018-09-25T13:19:04.653Z,0.20
2018-09-25T13:21:06.933Z,0.20
2018-09-25T13:23:09.229Z,0.20
2018-09-25T13:25:11.461Z,0.20
2018-09-25T13:27:13.700Z,0.30
2018-09-25T13:29:15.975Z,0.20
2018-09-25T13:31:18.263Z,0.20
2018-09-25T13:33:20.503Z,0.30
2018-09-25T13:35:22.751Z,0.40
2018-09-25T13:37:24.986Z,0.30
2018-09-25T13:39:27.261Z,0.20
2018-09-25T13:41:29.518Z,0.30
2018-09-25T13:43:31.756Z,0.20
2018-09-25T13:45:34.039Z,0.23
2018-09-25T13:47:36.287Z,0.10
2018-09-25T13:49:38.553Z,0.20
2018-09-25T13:51:40.809Z,0.30
2018-09-25T13:53:43.008Z,0.15
2018-09-25T13:55:45.270Z,0.20
2018-09-25T13:57:47.525Z,0.10
2018-09-25T13:59:49.763Z,0.25
2018-09-25T14:01:52.035Z,0.28
2018-09-25T14:03:54.281Z,0.20
2018-09-25T14:05:56.556Z,0.50
2018-09-25T14:07:58.801Z,0.30
2018-09-25T14:10:01.023Z,0.30
2018-09-25T14:12:03.316Z,0.30
2018-09-25T14:14:05.566Z,0.20
2018-09-25T14:16:07.815Z,0.30
2018-09-25T14:18:10.060Z,0.20
2018-09-25T14:20:12.335Z,0.20
2018-09-25T14:22:14.571Z,0.42
2018-09-25T14:24:16.833Z,0.40
2018-09-25T14:26:19.113Z,0.28
2018-09-25T14:28:21.385Z,0.30
2018-09-25T14:30:23.647Z,0.30
2018-09-25T14:32:25.909Z,0.25
2018-09-25T14:34:28.198Z,0.30
2018-09-25T14:36:30.398Z,0.30
2018-09-25T14:38:32.691Z,0.20
2018-09-25T14:40:34.931Z,0.20
2018-09-25T14:42:37.175Z,0.30
2018-09-25T14:44:39.455Z,0.30
2018-09-25T14:46:41.693Z,0.20
2018-09-25T14:48:44.007Z,0.15
2018-09-25T14:50:46.233Z,0.20
2018-09-25T14:52:48.499Z,0.20
2018-09-25T14:54:50.763Z,0.27
2018-09-25T14:56:53.030Z,0.30
2018-09-25T14:58:55.342Z,0.23
2018-09-25T15:00:57.691Z,0.30
2018-09-25T15:02:59.875Z,0.23
2018-09-25T15:05:02.121Z,0.30
2018-09-25T15:07:04.357Z,0.20
2018-09-25T15:09:06.621Z,0.28
2018-09-25T15:11:08.901Z,0.20
2018-09-25T15:13:11.163Z,0.30
2018-09-25T15:15:13.389Z,0.20
2018-09-25T15:17:15.664Z,0.10
2018-09-25T15:19:18.137Z,0.30
2018-09-25T15:21:20.513Z,0.20
2018-09-25T15:23:22.648Z,0.20
2018-09-25T15:25:24.884Z,0.20
2018-09-25T15:27:27.155Z,0.20
2018-09-25T15:29:29.403Z,0.27
2018-09-25T15:31:31.623Z,0.27
2018-09-25T15:33:33.915Z,0.20
2018-09-25T15:35:36.252Z,0.20
2018-09-25T15:37:38.419Z,0.20
2018-09-25T15:39:40.681Z,0.30
2018-09-25T15:41:42.969Z,0.30
2018-09-25T15:43:45.200Z,0.10
2018-09-25T15:45:47.511Z,0.10
2018-09-25T15:47:49.783Z,0.20
2018-09-25T15:49:51.987Z,0.20
2018-09-25T15:51:54.279Z,0.20
2018-09-25T15:53:56.519Z,0.20
2018-09-25T15:55:58.746Z,0.20
2018-09-25T15:58:01.013Z,0.30
2018-09-25T16:00:03.241Z,0.20
2018-09-25T16:02:05.514Z,0.30
2018-09-25T16:04:07.760Z,0.20
2018-09-25T16:06:10.047Z,0.10
2018-09-25T16:08:12.312Z,0.30
2018-09-25T16:10:14.578Z,0.20
2018-09-25T16:12:16.866Z,0.23
2018-09-25T16:14:19.116Z,0.20
2018-09-25T16:16:21.380Z,0.20
2018-09-25T16:18:23.660Z,0.10
2018-09-25T16:20:25.940Z,0.20
2018-09-25T16:22:28.150Z,0.20
2018-09-25T16:24:30.434Z,0.30
2018-09-25T16:26:32.682Z,0.10
2018-09-25T16:28:34.898Z,0.20
2018-09-25T16:30:37.170Z,0.30
2018-09-25T16:32:39.423Z,0.10
2018-09-25T16:34:41.688Z,0.20
2018-09-25T16:36:43.940Z,0.20
2018-09-25T16:38:46.193Z,0.13
2018-09-25T16:40:48.480Z,0.20
2018-09-25T16:42:50.769Z,0.13
2018-09-25T16:44:52.967Z,0.20
2018-09-25T16:46:55.236Z,0.20
2018-09-25T16:48:57.485Z,0.30
2018-09-25T16:50:59.760Z,0.30
2018-09-25T16:53:02.014Z,0.10
2018-09-25T16:55:04.270Z,0.30
2018-09-25T16:57:06.524Z,0.30
2018-09-25T16:59:08.764Z,0.10
2018-09-25T17:01:11.020Z,0.10
2018-09-25T17:03:13.254Z,0.27
2018-09-25T17:05:15.528Z,0.30
2018-09-25T17:07:17.824Z,0.10
2018-09-25T17:09:20.078Z,0.17
2018-09-25T17:11:22.313Z,0.20
2018-09-25T17:13:24.614Z,0.27
2018-09-25T17:15:26.866Z,0.30
2018-09-25T17:17:29.113Z,0.10
2018-09-25T17:19:31.403Z,0.30
2018-09-25T17:21:33.648Z,0.40
2018-09-25T17:23:35.871Z,0.30
2018-09-25T17:25:38.148Z,0.40
2018-09-25T17:27:40.430Z,0.40
2018-09-25T17:29:42.664Z,0.43
2018-09-25T17:31:44.908Z,0.70
2018-09-25T17:33:47.191Z,0.53
2018-09-25T17:35:49.438Z,0.40
2018-09-25T17:37:51.707Z,0.53
2018-09-25T17:39:53.964Z,0.40
2018-09-25T17:41:56.234Z,0.40
2018-09-25T17:43:58.486Z,0.50
2018-09-25T17:46:00.772Z,0.50
2018-09-25T17:48:02.995Z,0.40
2018-09-25T17:50:05.693Z,0.30
2018-09-25T17:52:07.925Z,0.50
2018-09-25T17:54:10.218Z,0.30
2018-09-25T17:56:12.515Z,0.43
2018-09-25T17:58:14.760Z,0.30
2018-09-25T18:00:17.026Z,0.40
2018-09-25T18:02:19.342Z,0.33
2018-09-25T18:04:21.580Z,0.40
2018-09-25T18:06:23.806Z,0.20
2018-09-25T18:08:26.109Z,0.33
2018-09-25T18:10:28.365Z,0.40
2018-09-25T18:12:30.646Z,0.50
2018-09-25T18:14:32.914Z,0.37
2018-09-25T18:16:35.173Z,0.50
2018-09-25T18:18:37.444Z,0.40
2018-09-25T18:20:39.690Z,0.30
2018-09-25T18:22:41.964Z,0.50
2018-09-25T18:24:44.239Z,0.40
2018-09-25T18:26:46.516Z,0.20
2018-09-25T18:28:48.790Z,0.30
2018-09-25T18:30:51.046Z,0.47
2018-09-25T18:32:53.852Z,0.40
2018-09-25T18:34:56.076Z,0.40
2018-09-25T18:36:58.332Z,0.40
2018-09-25T18:39:00.607Z,0.30
2018-09-25T18:41:02.877Z,0.40
2018-09-25T18:43:05.119Z,0.33
2018-09-25T18:45:07.390Z,0.30
2018-09-25T18:47:09.705Z,0.50
2018-09-25T18:49:11.950Z,0.40
2018-09-25T18:51:14.185Z,0.30
2018-09-25T18:53:16.478Z,0.30
2018-09-25T18:55:18.678Z,0.30
2018-09-25T18:57:20.964Z,0.40
2018-09-25T18:59:23.275Z,0.40
2018-09-25T19:01:25.486Z,0.50
2018-09-25T19:03:27.730Z,0.40
2018-09-25T19:05:30.055Z,0.37
2018-09-25T19:07:32.242Z,0.60
2018-09-25T19:09:34.533Z,81.37
2018-09-25T19:11:36.785Z,6.07
2018-09-25T19:13:39.097Z,63.30
2018-09-25T19:15:41.351Z,284.43
2018-09-25T19:17:43.621Z,125.17
2018-09-25T19:21:53.461Z,215.30
2018-09-25T19:23:55.756Z,157.17
2018-09-25T19:25:58.010Z,152.27
2018-09-25T19:28:00.354Z,96.47
2018-09-25T19:30:02.588Z,82.13
2018-09-25T19:32:04.889Z,87.23
2018-09-25T19:34:07.410Z,129.07
2018-09-25T19:36:09.662Z,147.43
2018-09-25T19:38:11.901Z,143.87
2018-09-25T19:40:14.228Z,193.97
2018-09-25T19:42:16.493Z,192.37
2018-09-25T19:44:18.791Z,180.93
2018-09-25T19:46:21.160Z,180.30
2018-09-25T19:48:23.421Z,171.43
2018-09-25T19:50:25.678Z,167.90
2018-09-25T19:52:27.939Z,162.43
2018-09-25T19:54:30.221Z,172.53
2018-09-25T19:56:32.520Z,206.43
2018-09-25T19:58:34.795Z,231.50
2018-09-25T20:00:37.100Z,246.67
2018-09-25T20:02:39.368Z,241.43
2018-09-25T20:04:41.678Z,266.20
2018-09-25T20:06:43.924Z,260.65
2018-09-25T20:08:46.185Z,263.57
2018-09-25T20:10:48.464Z,291.57
2018-09-25T20:12:50.770Z,313.20
2018-09-25T20:14:53.003Z,311.93
2018-09-25T20:16:55.290Z,319.55
2018-09-25T20:18:57.582Z,321.60
2018-09-25T20:20:59.855Z,331.85
2018-09-25T20:23:02.122Z,319.10
2018-09-25T20:25:04.373Z,320.80
2018-09-25T20:27:06.669Z,314.23
2018-09-25T20:29:08.949Z,333.30
2018-09-25T20:31:11.168Z,313.00
2018-09-25T20:33:13.460Z,330.30
2018-09-25T20:35:15.724Z,363.87
2018-09-25T20:37:18.013Z,360.82
2018-09-25T20:39:20.258Z,392.77
2018-09-25T20:41:22.510Z,383.90
2018-09-25T20:43:24.758Z,377.22
2018-09-25T20:45:27.020Z,385.90
2018-09-25T20:47:29.268Z,380.80
2018-09-25T20:49:31.558Z,394.52
2018-09-25T20:51:33.816Z,403.15
2018-09-25T20:53:36.101Z,442.20
2018-09-25T20:55:38.371Z,445.55
2018-09-25T20:57:40.648Z,440.43
2018-09-25T20:59:42.950Z,440.50
2018-09-25T21:01:45.262Z,452.28
2018-09-25T21:03:47.508Z,448.88
2018-09-25T21:05:49.775Z,451.48
2018-09-25T21:07:52.031Z,469.25
2018-09-25T21:09:54.325Z,494.52
2018-09-25T21:11:56.586Z,498.55
2018-09-25T21:13:58.848Z,475.68
2018-09-25T21:16:01.156Z,483.68
2018-09-25T21:18:03.444Z,480.75
2018-09-25T21:20:05.660Z,495.95
2018-09-25T21:22:07.970Z,491.32
2018-09-25T21:24:10.211Z,474.82
2018-09-25T21:26:12.473Z,514.58
2018-09-25T21:28:14.743Z,487.35
2018-09-25T21:30:17.021Z,635.10
2018-09-25T21:32:19.287Z,582.42
2018-09-25T21:34:21.549Z,508.77
2018-09-25T21:36:23.859Z,513.05
2018-09-25T21:38:26.120Z,529.00
2018-09-25T21:40:28.405Z,534.52
2018-09-25T21:42:30.673Z,543.23
2018-09-25T21:44:32.931Z,536.35
2018-09-25T21:46:35.179Z,552.00
2018-09-25T21:48:37.449Z,565.67
2018-09-25T21:50:39.757Z,525.72
2018-09-25T21:52:41.996Z,527.70
2018-09-25T21:54:44.251Z,548.83
2018-09-25T21:56:46.567Z,554.08
2018-09-25T21:58:48.789Z,571.87
2018-09-25T22:00:51.111Z,565.55
2018-09-25T22:02:53.382Z,580.65
2018-09-25T22:04:55.617Z,552.83
2018-09-25T22:06:57.912Z,563.52
2018-09-25T22:09:00.209Z,576.17
2018-09-25T22:11:02.501Z,570.55
2018-09-25T22:13:04.755Z,552.58
2018-09-25T22:15:07.003Z,547.65
2018-09-25T22:17:09.268Z,574.05
2018-09-25T22:19:11.561Z,576.37
2018-09-25T22:21:13.836Z,613.72
2018-09-25T22:23:16.129Z,606.65
2018-09-25T22:25:18.417Z,589.75
2018-09-25T22:27:20.669Z,602.67
2018-09-25T22:29:22.959Z,636.35
2018-09-25T22:31:25.205Z,640.30
2018-09-25T22:33:27.497Z,619.40
2018-09-25T22:35:29.757Z,635.20
2018-09-25T22:37:31.998Z,656.95
2018-09-25T22:39:34.285Z,615.25
2018-09-25T22:41:36.555Z,636.02
2018-09-25T22:43:38.815Z,639.05
2018-09-25T22:45:41.077Z,614.52
2018-09-25T22:47:43.361Z,629.15
2018-09-25T22:49:45.647Z,612.20
2018-09-25T22:51:47.886Z,593.27
2018-09-25T22:53:50.148Z,593.20
2018-09-25T22:55:52.418Z,587.75
2018-09-25T22:57:54.699Z,610.90
2018-09-25T22:59:56.970Z,575.95
2018-09-25T23:01:59.252Z,584.60
2018-09-25T23:04:01.493Z,642.40
2018-09-25T23:06:03.738Z,624.08
2018-09-25T23:08:06.031Z,606.73
2018-09-25T23:10:08.289Z,620.35
2018-09-25T23:12:10.565Z,609.60
2018-09-25T23:14:12.858Z,599.10
2018-09-25T23:16:15.150Z,619.20
2018-09-25T23:18:17.363Z,607.92
2018-09-25T23:20:19.679Z,635.30
2018-09-25T23:22:21.957Z,631.55
2018-09-25T23:24:24.225Z,622.42
2018-09-25T23:26:26.473Z,624.88
2018-09-25T23:28:28.765Z,642.40
2018-09-25T23:30:31.076Z,648.50
2018-09-25T23:32:33.330Z,657.33
2018-09-25T23:34:35.578Z,639.60
2018-09-25T23:36:37.870Z,631.47
2018-09-25T23:38:40.148Z,627.90
2018-09-25T23:40:42.397Z,637.67
2018-09-25T23:42:44.684Z,621.83
2018-09-25T23:44:46.930Z,621.48
2018-09-25T23:46:49.183Z,611.00
2018-09-25T23:48:51.471Z,612.17
2018-09-25T23:50:53.766Z,605.50
2018-09-25T23:52:56.522Z,593.33
2018-09-25T23:54:58.734Z,598.33
2018-09-25T23:57:00.967Z,593.55
2018-09-25T23:59:03.284Z,593.75
